Time,TemperatureF,DewpointF,PressureIn,WindDirection,WindDirectionDegrees,WindSpeedMPH,WindSpeedGustMPH,Humidity,HourlyPrecipIn,Conditions,Clouds,dailyrainin,SoftwareType,DateUTC
2013-02-10 00:01:00,19.7,17.8,31.77,SSE,159,1.0,2.0,92,0.00,,,0.31,Wunderground v.1.15,2013-02-10 08:01:00,
2013-02-10 00:06:00,19.8,17.9,31.77,SSE,159,1.0,2.0,92,0.00,,,0.00,Wunderground v.1.15,2013-02-10 08:06:00,
2013-02-10 00:16:00,19.9,18.0,31.77,SSE,159,0.0,0.0,92,0.00,,,0.00,Wunderground v.1.15,2013-02-10 08:16:00,
2013-02-10 00:21:00,20.0,18.1,31.77,SSE,159,0.0,0.0,92,0.00,,,0.00,Wunderground v.1.15,2013-02-10 08:21:00,
2013-02-10 00:26:00,20.2,18.2,31.77,SSE,159,0.0,0.0,92,0.00,,,0.00,Wunderground v.1.15,2013-02-10 08:26:00,
2013-02-10 00:31:00,20.3,18.3,31.77,SSE,159,0.0,0.0,92,0.00,,,0.00,Wunderground v.1.15,2013-02-10 08:31:00,
2013-02-10 00:36:00,20.4,18.4,31.77,SSE,159,0.0,0.0,92,0.00,,,0.00,Wunderground v.1.15,2013-02-10 08:36:00,
2013-02-10 00:41:00,20.4,18.4,31.77,SSE,159,0.0,0.0,92,0.00,,,0.00,Wunderground v.1.15,2013-02-10 08:41:00,
2013-02-10 00:46:00,20.3,18.3,31.77,SSE,159,0.0,0.0,92,0.00,,,0.00,Wunderground v.1.15,2013-02-10 08:46:00,
2013-02-10 00:51:00,20.1,17.9,31.77,SSE,159,0.0,1.0,91,0.00,,,0.00,Wunderground v.1.15,2013-02-10 08:51:00,
2013-02-10 00:56:00,19.7,17.5,31.77,SSE,159,0.0,1.0,91,0.00,,,0.00,Wunderground v.1.15,2013-02-10 08:56:00,
2013-02-10 01:01:00,19.6,17.4,31.77,SSE,159,0.0,2.0,91,0.00,,,0.00,Wunderground v.1.15,2013-02-10 09:01:00,
2013-02-10 01:06:00,19.3,17.1,31.77,SSE,159,0.0,2.0,91,0.00,,,0.00,Wunderground v.1.15,2013-02-10 09:06:00,
2013-02-10 01:16:00,18.6,16.2,31.77,SSE,159,0.0,0.0,90,0.00,,,0.00,Wunderground v.1.15,2013-02-10 09:16:00,
2013-02-10 01:21:00,18.3,15.9,31.77,SSE,159,0.0,0.0,90,0.00,,,0.00,Wunderground v.1.15,2013-02-10 09:21:00,
2013-02-10 01:26:00,18.0,15.6,31.77,SSE,159,0.0,0.0,90,0.00,,,0.00,Wunderground v.1.15,2013-02-10 09:26:00,
2013-02-10 01:31:00,17.9,15.5,31.77,SSE,159,0.0,0.0,90,0.00,,,0.00,Wunderground v.1.15,2013-02-10 09:31:00,
2013-02-10 01:36:00,17.8,15.6,31.77,SSE,159,0.0,0.0,91,0.00,,,0.00,Wunderground v.1.15,2013-02-10 09:36:00,
2013-02-10 01:41:00,17.8,15.6,31.77,SSE,159,0.0,0.0,91,0.00,,,0.00,Wunderground v.1.15,2013-02-10 09:41:00,
2013-02-10 01:46:00,17.9,15.7,31.77,SSE,159,0.0,0.0,91,0.00,,,0.00,Wunderground v.1.15,2013-02-10 09:46:00,
2013-02-10 01:51:00,17.9,15.7,31.77,SSE,159,0.0,2.0,91,0.00,,,0.00,Wunderground v.1.15,2013-02-10 09:51:00,
2013-02-10 01:56:00,17.9,15.7,31.77,SSE,159,1.0,2.0,91,0.00,,,0.00,Wunderground v.1.15,2013-02-10 09:56:00,
2013-02-10 02:01:00,17.9,15.7,31.77,SSE,159,1.0,1.0,91,0.00,,,0.00,Wunderground v.1.15,2013-02-10 10:01:00,
2013-02-10 02:06:00,18.0,15.8,31.77,SSE,159,0.0,1.0,91,0.00,,,0.00,Wunderground v.1.15,2013-02-10 10:06:00,
2013-02-10 02:11:00,18.0,15.8,31.77,SSE,159,0.0,0.0,91,0.00,,,0.00,Wunderground v.1.15,2013-02-10 10:11:00,
2013-02-10 02:16:00,17.9,15.7,31.77,SSE,159,0.0,1.0,91,0.00,,,0.00,Wunderground v.1.15,2013-02-10 10:16:00,
2013-02-10 02:21:00,17.6,15.4,31.77,SSE,159,0.0,0.0,91,0.00,,,0.00,Wunderground v.1.15,2013-02-10 10:21:00,
2013-02-10 02:26:00,17.4,15.0,31.77,SSE,159,0.0,0.0,90,0.00,,,0.00,Wunderground v.1.15,2013-02-10 10:26:00,
2013-02-10 02:31:00,17.1,14.7,31.77,SSE,159,0.0,1.0,90,0.00,,,0.00,Wunderground v.1.15,2013-02-10 10:31:00,
2013-02-10 02:36:00,16.9,14.5,31.77,SSE,159,0.0,1.0,90,0.00,,,0.00,Wunderground v.1.15,2013-02-10 10:36:00,
2013-02-10 02:41:00,16.6,14.2,31.77,SSE,159,0.0,0.0,90,0.00,,,0.00,Wunderground v.1.15,2013-02-10 10:41:00,
2013-02-10 02:46:00,16.3,13.9,31.77,SSE,159,1.0,1.0,90,0.00,,,0.00,Wunderground v.1.15,2013-02-10 10:46:00,
2013-02-10 02:56:00,16.3,14.1,31.77,SSE,159,1.0,1.0,91,0.00,,,0.00,Wunderground v.1.15,2013-02-10 10:56:00,
2013-02-10 03:01:00,16.5,14.3,31.77,SSE,159,0.0,2.0,91,0.00,,,0.00,Wunderground v.1.15,2013-02-10 11:01:00,
2013-02-10 03:06:00,16.6,14.4,31.77,SSE,159,0.0,2.0,91,0.00,,,0.00,Wunderground v.1.15,2013-02-10 11:06:00,
2013-02-10 03:11:00,16.4,14.2,31.77,SSE,159,0.0,0.0,91,0.00,,,0.00,Wunderground v.1.15,2013-02-10 11:11:00,
2013-02-10 03:16:00,16.3,14.1,31.77,SSE,159,0.0,0.0,91,0.00,,,0.00,Wunderground v.1.15,2013-02-10 11:16:00,
2013-02-10 03:21:00,16.3,14.1,31.77,SSE,159,0.0,0.0,91,0.00,,,0.00,Wunderground v.1.15,2013-02-10 11:21:00,
2013-02-10 03:26:00,16.2,14.0,31.77,SSE,159,0.0,1.0,91,0.00,,,0.00,Wunderground v.1.15,2013-02-10 11:26:00,
2013-02-10 03:31:00,16.1,13.9,31.77,SSE,159,0.0,1.0,91,0.00,,,0.00,Wunderground v.1.15,2013-02-10 11:31:00,
2013-02-10 03:36:00,16.0,13.8,31.77,SSE,159,0.0,1.0,91,0.00,,,0.00,Wunderground v.1.15,2013-02-10 11:36:00,
2013-02-10 03:41:00,15.9,13.7,31.77,SSE,159,0.0,0.0,91,0.00,,,0.00,Wunderground v.1.15,2013-02-10 11:41:00,
2013-02-10 03:46:00,15.9,13.7,31.77,SSE,159,0.0,0.0,91,0.00,,,0.00,Wunderground v.1.15,2013-02-10 11:46:00,
2013-02-10 03:51:00,15.9,13.7,31.77,SSE,159,0.0,0.0,91,0.00,,,0.00,Wunderground v.1.15,2013-02-10 11:51:00,
2013-02-10 03:56:00,15.9,13.7,31.77,SSE,159,1.0,1.0,91,0.00,,,0.00,Wunderground v.1.15,2013-02-10 11:56:00,
2013-02-10 04:01:00,15.9,13.7,31.77,SSE,159,1.0,2.0,91,0.00,,,0.00,Wunderground v.1.15,2013-02-10 12:01:00,
2013-02-10 06:01:00,17.3,15.1,31.77,NE,54,2.0,2.0,91,0.00,,,0.00,Wunderground v.1.15,2013-02-10 14:01:00,
2013-02-10 06:06:00,17.3,15.1,31.77,NE,53,3.0,3.0,91,0.00,,,0.00,Wunderground v.1.15,2013-02-10 14:06:00,
2013-02-10 06:11:00,17.4,15.2,31.77,NE,53,3.0,3.0,91,0.00,,,0.00,Wunderground v.1.15,2013-02-10 14:11:00,
2013-02-10 06:16:00,17.4,15.2,31.77,NE,53,3.0,3.0,91,0.00,,,0.00,Wunderground v.1.15,2013-02-10 14:16:00,
2013-02-10 06:21:00,17.4,15.2,31.77,NE,53,3.0,3.0,91,0.00,,,0.00,Wunderground v.1.15,2013-02-10 14:21:00,
2013-02-10 06:26:00,17.3,15.1,31.77,NE,53,3.0,3.0,91,0.00,,,0.00,Wunderground v.1.15,2013-02-10 14:26:00,
2013-02-10 06:31:00,17.3,15.1,31.77,NE,53,3.0,3.0,91,0.00,,,0.00,Wunderground v.1.15,2013-02-10 14:31:00,
2013-02-10 06:36:00,17.4,15.2,31.77,NE,53,2.0,3.0,91,0.00,,,0.00,Wunderground v.1.15,2013-02-10 14:36:00,
2013-02-10 06:41:00,17.7,15.5,31.77,NE,53,2.0,2.0,91,0.00,,,0.00,Wunderground v.1.15,2013-02-10 14:41:00,
2013-02-10 06:46:00,18.0,15.8,31.77,NE,53,2.0,2.0,91,0.00,,,0.00,Wunderground v.1.15,2013-02-10 14:46:00,
2013-02-10 06:51:00,18.3,16.1,31.77,NE,53,2.0,2.0,91,0.00,,,0.00,Wunderground v.1.15,2013-02-10 14:51:00,
2013-02-10 06:56:00,18.5,16.3,31.77,NE,53,1.0,2.0,91,0.00,,,0.00,Wunderground v.1.15,2013-02-10 14:56:00,
2013-02-10 07:01:00,18.8,16.6,31.77,NE,53,0.0,4.0,91,0.00,,,0.00,Wunderground v.1.15,2013-02-10 15:01:00,
2013-02-10 07:06:00,18.9,16.7,31.77,NE,53,0.0,4.0,91,0.00,,,0.00,Wunderground v.1.15,2013-02-10 15:06:00,
2013-02-10 07:11:00,18.8,16.4,31.77,NE,53,0.0,1.0,90,0.00,,,0.00,Wunderground v.1.15,2013-02-10 15:11:00,
2013-02-10 07:16:00,18.4,15.7,31.77,NE,53,0.0,1.0,89,0.00,,,0.00,Wunderground v.1.15,2013-02-10 15:16:00,
2013-02-10 07:21:00,18.0,15.3,31.77,NE,53,1.0,2.0,89,0.00,,,0.00,Wunderground v.1.15,2013-02-10 15:21:00,
2013-02-10 07:26:00,18.0,15.6,31.77,NE,53,2.0,2.0,90,0.00,,,0.00,Wunderground v.1.15,2013-02-10 15:26:00,
2013-02-10 07:31:00,18.2,16.0,31.77,NE,53,2.0,2.0,91,0.00,,,0.00,Wunderground v.1.15,2013-02-10 15:31:00,
2013-02-10 07:41:00,18.8,16.6,31.77,NE,53,0.0,1.0,91,0.00,,,0.00,Wunderground v.1.15,2013-02-10 15:41:00,
2013-02-10 07:46:00,18.7,16.3,31.77,NE,53,0.0,1.0,90,0.00,,,0.00,Wunderground v.1.15,2013-02-10 15:46:00,
2013-02-10 07:56:00,18.8,16.6,31.77,NE,53,0.0,0.0,91,0.00,,,0.00,Wunderground v.1.15,2013-02-10 15:56:00,
2013-02-10 08:01:00,18.9,16.7,31.77,NE,53,0.0,4.0,91,0.00,,,0.00,Wunderground v.1.15,2013-02-10 16:01:00,
2013-02-10 08:11:00,18.9,16.7,31.77,NE,53,0.0,1.0,91,0.00,,,0.00,Wunderground v.1.15,2013-02-10 16:11:00,
2013-02-10 08:16:00,18.8,16.6,31.77,NE,53,0.0,1.0,91,0.00,,,0.00,Wunderground v.1.15,2013-02-10 16:16:00,
2013-02-10 08:21:00,19.0,16.8,31.77,NE,53,0.0,0.0,91,0.00,,,0.00,Wunderground v.1.15,2013-02-10 16:21:00,
2013-02-10 08:26:00,19.1,16.9,31.77,NE,53,0.0,0.0,91,0.00,,,0.00,Wunderground v.1.15,2013-02-10 16:26:00,
2013-02-10 08:31:00,19.0,16.8,31.77,NE,53,0.0,0.0,91,0.00,,,0.00,Wunderground v.1.15,2013-02-10 16:31:00,
2013-02-10 08:36:00,18.7,16.3,31.77,NE,53,0.0,0.0,90,0.00,,,0.00,Wunderground v.1.15,2013-02-10 16:36:00,
2013-02-10 08:41:00,18.6,16.2,31.77,NE,53,0.0,0.0,90,0.00,,,0.00,Wunderground v.1.15,2013-02-10 16:41:00,
2013-02-10 08:46:00,18.8,16.6,31.77,NE,53,0.0,0.0,91,0.00,,,0.00,Wunderground v.1.15,2013-02-10 16:46:00,
2013-02-10 08:51:00,19.7,17.8,31.77,NE,53,0.0,0.0,92,0.00,,,0.00,Wunderground v.1.15,2013-02-10 16:51:00,
2013-02-10 08:56:00,21.2,19.2,31.77,NE,53,0.0,0.0,92,0.00,,,0.00,Wunderground v.1.15,2013-02-10 16:56:00,
2013-02-10 09:01:00,22.9,20.9,31.77,NE,53,0.0,2.0,92,0.00,,,0.00,Wunderground v.1.15,2013-02-10 17:01:00,
2013-02-10 09:06:00,24.5,21.7,31.77,NE,53,0.0,2.0,89,0.00,,,0.00,Wunderground v.1.15,2013-02-10 17:06:00,
2013-02-10 09:11:00,26.1,22.8,31.77,NE,53,0.0,0.0,87,0.00,,,0.00,Wunderground v.1.15,2013-02-10 17:11:00,
2013-02-10 09:16:00,27.6,24.0,31.77,NE,53,0.0,0.0,86,0.00,,,0.00,Wunderground v.1.15,2013-02-10 17:16:00,
2013-02-10 09:21:00,29.1,24.3,31.77,NE,53,0.0,0.0,82,0.00,,,0.00,Wunderground v.1.15,2013-02-10 17:21:00,
2013-02-10 09:26:00,30.4,25.0,31.77,NE,53,0.0,0.0,80,0.00,,,0.00,Wunderground v.1.15,2013-02-10 17:26:00,
2013-02-10 09:31:00,31.4,25.0,31.77,NE,53,0.0,0.0,77,0.00,,,0.00,Wunderground v.1.15,2013-02-10 17:31:00,
2013-02-10 09:36:00,32.3,25.6,31.77,NE,53,0.0,0.0,76,0.00,,,0.00,Wunderground v.1.15,2013-02-10 17:36:00,
2013-02-10 09:41:00,32.8,26.1,31.77,ESE,119,0.0,1.0,76,0.00,,,0.00,Wunderground v.1.15,2013-02-10 17:41:00,
2013-02-10 09:46:00,33.4,26.6,31.77,ESE,119,0.0,1.0,76,0.00,,,0.01,Wunderground v.1.15,2013-02-10 17:46:00,
2013-02-10 09:51:00,33.9,26.8,31.77,SE,125,0.0,3.0,75,0.00,,,0.01,Wunderground v.1.15,2013-02-10 17:51:00,
2013-02-10 09:56:00,33.2,26.5,31.77,SE,125,1.0,3.0,76,0.07,,,0.02,Wunderground v.1.15,2013-02-10 17:56:00,
2013-02-10 10:01:00,32.7,26.0,31.77,SE,125,1.0,1.0,76,0.06,,,0.02,Wunderground v.1.15,2013-02-10 18:01:00,
2013-02-10 10:06:00,32.6,26.5,31.77,SE,125,0.0,1.0,78,0.04,,,0.02,Wunderground v.1.15,2013-02-10 18:06:00,
2013-02-10 10:11:00,32.6,26.8,31.77,SE,125,0.0,0.0,79,0.00,,,0.03,Wunderground v.1.15,2013-02-10 18:11:00,
2013-02-10 10:16:00,32.2,26.4,31.77,SE,125,0.0,0.0,79,0.00,,,0.03,Wunderground v.1.15,2013-02-10 18:16:00,
2013-02-10 10:21:00,31.7,25.9,31.77,SE,125,0.0,0.0,79,0.08,,,0.04,Wunderground v.1.15,2013-02-10 18:21:00,
2013-02-10 10:26:00,31.1,25.7,31.77,SSE,161,0.0,0.0,80,0.07,,,0.04,Wunderground v.1.15,2013-02-10 18:26:00,
2013-02-10 10:31:00,30.9,26.1,31.77,SSE,161,0.0,1.0,82,0.04,,,0.04,Wunderground v.1.15,2013-02-10 18:31:00,
2013-02-10 10:36:00,30.3,25.5,31.77,SSE,161,1.0,1.0,82,0.00,,,0.04,Wunderground v.1.15,2013-02-10 18:36:00,
2013-02-10 10:46:00,29.8,25.6,31.77,SSE,161,1.0,1.0,84,0.00,,,0.04,Wunderground v.1.15,2013-02-10 18:46:00,
2013-02-10 10:51:00,29.9,25.9,31.77,SSE,161,1.0,3.0,85,0.00,,,0.04,Wunderground v.1.15,2013-02-10 18:51:00,
2013-02-10 10:56:00,30.5,26.5,31.77,SSE,161,1.0,3.0,85,0.00,,,0.04,Wunderground v.1.15,2013-02-10 18:56:00,
2013-02-10 11:01:00,31.6,27.3,31.77,SSE,161,0.0,4.0,84,0.00,,,0.04,Wunderground v.1.15,2013-02-10 19:01:00,
2013-02-10 11:06:00,32.6,28.0,31.77,SSE,161,0.0,4.0,83,0.00,,,0.04,Wunderground v.1.15,2013-02-10 19:06:00,
2013-02-10 11:11:00,33.5,28.6,31.77,WSW,238,0.0,2.0,82,0.00,,,0.04,Wunderground v.1.15,2013-02-10 19:11:00,
2013-02-10 11:16:00,33.5,28.0,31.77,WSW,237,1.0,2.0,80,0.00,,,0.05,Wunderground v.1.15,2013-02-10 19:16:00,
2013-02-10 11:21:00,33.2,27.4,31.77,WSW,238,0.0,0.0,79,0.00,,,0.05,Wunderground v.1.15,2013-02-10 19:21:00,
2013-02-10 11:26:00,32.6,27.1,31.77,WSW,238,0.0,0.0,80,0.00,,,0.05,Wunderground v.1.15,2013-02-10 19:26:00,
2013-02-10 11:31:00,32.5,27.6,31.77,WSW,241,1.0,2.0,82,0.00,,,0.05,Wunderground v.1.15,2013-02-10 19:31:00,
2013-02-10 11:36:00,32.3,27.4,31.77,WSW,241,1.0,2.0,82,0.00,,,0.05,Wunderground v.1.15,2013-02-10 19:36:00,
2013-02-10 11:41:00,32.0,26.8,31.77,SW,232,1.0,1.0,81,0.00,,,0.05,Wunderground v.1.15,2013-02-10 19:41:00,
2013-02-10 11:46:00,31.4,26.8,31.77,SW,230,1.0,1.0,83,0.00,,,0.05,Wunderground v.1.15,2013-02-10 19:46:00,
2013-02-10 11:51:00,31.0,26.4,31.77,SW,230,0.0,0.0,83,0.00,,,0.05,Wunderground v.1.15,2013-02-10 19:51:00,
2013-02-10 11:56:00,30.7,26.1,31.77,SW,230,1.0,1.0,83,0.00,,,0.05,Wunderground v.1.15,2013-02-10 19:56:00,
2013-02-10 12:01:00,30.4,26.1,31.77,SW,230,1.0,1.0,84,0.00,,,0.05,Wunderground v.1.15,2013-02-10 20:01:00,
2013-02-10 12:06:00,30.3,26.0,31.77,SW,231,0.0,1.0,84,0.00,,,0.06,Wunderground v.1.15,2013-02-10 20:06:00,
2013-02-10 12:11:00,30.1,25.8,31.77,SW,230,0.0,0.0,84,0.00,,,0.06,Wunderground v.1.15,2013-02-10 20:11:00,
2013-02-10 12:16:00,30.0,25.8,31.77,SW,227,0.0,2.0,84,0.00,,,0.06,Wunderground v.1.15,2013-02-10 20:16:00,
2013-02-10 12:21:00,29.9,25.7,31.77,SW,219,1.0,2.0,84,0.00,,,0.06,Wunderground v.1.15,2013-02-10 20:21:00,
2013-02-10 12:26:00,29.7,25.7,31.77,SW,219,1.0,3.0,85,0.00,,,0.06,Wunderground v.1.15,2013-02-10 20:26:00,
2013-02-10 12:31:00,29.6,25.6,31.77,SW,219,1.0,1.0,85,0.00,,,0.06,Wunderground v.1.15,2013-02-10 20:31:00,
2013-02-10 12:36:00,29.4,25.4,31.77,South,179,1.0,1.0,85,0.00,,,0.06,Wunderground v.1.15,2013-02-10 20:36:00,
2013-02-10 12:41:00,29.2,25.5,31.77,South,179,1.0,2.0,86,0.00,,,0.06,Wunderground v.1.15,2013-02-10 20:41:00,
2013-02-10 12:46:00,29.3,25.6,31.77,South,179,0.0,2.0,86,0.00,,,0.06,Wunderground v.1.15,2013-02-10 20:46:00,
2013-02-10 12:51:00,29.5,25.8,31.77,South,179,0.0,0.0,86,0.00,,,0.06,Wunderground v.1.15,2013-02-10 20:51:00,
2013-02-10 12:56:00,29.6,25.9,31.77,South,178,0.0,1.0,86,0.00,,,0.06,Wunderground v.1.15,2013-02-10 20:56:00,
2013-02-10 13:01:00,29.6,25.9,31.77,South,176,1.0,1.0,86,0.00,,,0.06,Wunderground v.1.15,2013-02-10 21:01:00,
2013-02-10 13:06:00,29.6,25.9,31.77,South,177,1.0,1.0,86,0.00,,,0.06,Wunderground v.1.15,2013-02-10 21:06:00,
2013-02-10 13:11:00,29.5,25.8,31.77,South,177,1.0,1.0,86,0.00,,,0.06,Wunderground v.1.15,2013-02-10 21:11:00,
2013-02-10 13:16:00,29.3,25.6,31.77,South,180,1.0,1.0,86,0.00,,,0.07,Wunderground v.1.15,2013-02-10 21:16:00,
2013-02-10 13:21:00,29.2,25.5,31.77,East,93,1.0,1.0,86,0.00,,,0.07,Wunderground v.1.15,2013-02-10 21:21:00,
2013-02-10 13:31:00,29.1,25.7,31.77,East,92,0.0,1.0,87,0.00,,,0.07,Wunderground v.1.15,2013-02-10 21:31:00,
2013-02-10 13:36:00,29.0,25.6,31.77,SSE,165,1.0,1.0,87,0.00,,,0.07,Wunderground v.1.15,2013-02-10 21:36:00,
2013-02-10 13:41:00,28.8,25.4,31.77,SSE,165,1.0,1.0,87,0.00,,,0.07,Wunderground v.1.15,2013-02-10 21:41:00,
2013-02-10 13:46:00,28.7,25.6,31.77,SSE,165,0.0,1.0,88,0.00,,,0.07,Wunderground v.1.15,2013-02-10 21:46:00,
2013-02-10 13:51:00,28.7,25.6,31.77,SSE,165,0.0,0.0,88,0.00,,,0.08,Wunderground v.1.15,2013-02-10 21:51:00,
2013-02-10 13:56:00,28.7,25.6,31.77,SSE,165,0.0,0.0,88,0.00,,,0.08,Wunderground v.1.15,2013-02-10 21:56:00,
2013-02-10 14:01:00,28.7,25.9,31.77,SSE,165,0.0,5.0,89,0.00,,,0.08,Wunderground v.1.15,2013-02-10 22:01:00,
2013-02-10 14:11:00,28.6,25.5,31.77,SSE,165,0.0,0.0,88,0.00,,,0.08,Wunderground v.1.15,2013-02-10 22:11:00,
2013-02-10 14:16:00,28.5,25.4,31.77,SSE,165,0.0,0.0,88,0.00,,,0.08,Wunderground v.1.15,2013-02-10 22:16:00,
2013-02-10 14:26:00,28.5,25.7,31.77,SSE,165,0.0,0.0,89,0.00,,,0.08,Wunderground v.1.15,2013-02-10 22:26:00,
2013-02-10 14:31:00,28.6,25.8,31.77,SSE,165,0.0,0.0,89,0.00,,,0.08,Wunderground v.1.15,2013-02-10 22:31:00,
2013-02-10 14:36:00,28.7,25.9,31.77,SSE,165,0.0,0.0,89,0.00,,,0.08,Wunderground v.1.15,2013-02-10 22:36:00,
2013-02-10 14:41:00,28.7,27.4,31.77,SSE,165,0.0,0.0,95,0.00,,,0.08,Wunderground v.1.15,2013-02-10 22:41:00,
2013-02-10 14:46:00,28.7,25.6,31.77,SSE,165,0.0,0.0,88,0.00,,,0.08,Wunderground v.1.15,2013-02-10 22:46:00,
2013-02-10 14:51:00,28.5,25.4,31.77,SSE,165,0.0,0.0,88,0.00,,,0.08,Wunderground v.1.15,2013-02-10 22:51:00,
2013-02-10 14:56:00,28.3,25.2,31.77,South,173,0.0,0.0,88,0.00,,,0.09,Wunderground v.1.15,2013-02-10 22:56:00,
2013-02-10 15:06:00,28.0,26.8,31.77,South,173,0.0,6.0,95,0.00,,,0.09,Wunderground v.1.15,2013-02-10 23:06:00,
2013-02-10 15:11:00,27.9,25.1,31.77,South,174,0.0,2.0,89,0.00,,,0.09,Wunderground v.1.15,2013-02-10 23:11:00,
2013-02-10 15:16:00,27.8,24.7,31.77,SE,126,0.0,2.0,88,0.00,,,0.09,Wunderground v.1.15,2013-02-10 23:16:00,
2013-02-10 15:21:00,27.6,24.8,31.77,SE,127,0.0,0.0,89,0.00,,,0.10,Wunderground v.1.15,2013-02-10 23:21:00,
2013-02-10 15:26:00,27.6,24.8,31.77,SE,127,0.0,1.0,89,0.00,,,0.10,Wunderground v.1.15,2013-02-10 23:26:00,
2013-02-10 15:31:00,27.5,24.7,31.77,SE,127,0.0,0.0,89,0.00,,,0.10,Wunderground v.1.15,2013-02-10 23:31:00,
2013-02-10 15:36:00,27.5,24.7,31.77,SE,127,0.0,0.0,89,0.00,,,0.10,Wunderground v.1.15,2013-02-10 23:36:00,
2013-02-10 15:41:00,27.4,24.3,31.77,SE,126,0.0,0.0,88,0.00,,,0.10,Wunderground v.1.15,2013-02-10 23:41:00,
2013-02-10 15:46:00,27.3,26.1,31.77,SE,127,0.0,0.0,95,0.00,,,0.10,Wunderground v.1.15,2013-02-10 23:46:00,
2013-02-10 15:51:00,27.4,24.6,31.77,SE,126,0.0,0.0,89,0.00,,,0.10,Wunderground v.1.15,2013-02-10 23:51:00,
2013-02-10 15:56:00,27.5,24.7,31.77,SE,126,0.0,0.0,89,0.00,,,0.10,Wunderground v.1.15,2013-02-10 23:56:00,
2013-02-10 16:01:00,27.6,24.8,31.77,SE,127,0.0,2.0,89,0.00,,,0.10,Wunderground v.1.15,2013-02-11 00:01:00,
2013-02-10 16:11:00,27.4,24.6,31.77,SE,127,0.0,0.0,89,0.00,,,0.10,Wunderground v.1.15,2013-02-11 00:11:00,
2013-02-10 16:16:00,27.4,24.6,31.77,SE,127,0.0,0.0,89,0.00,,,0.10,Wunderground v.1.15,2013-02-11 00:16:00,
2013-02-10 16:21:00,27.3,24.5,31.77,SE,127,0.0,0.0,89,0.00,,,0.10,Wunderground v.1.15,2013-02-11 00:21:00,
2013-02-10 16:26:00,27.3,24.5,31.77,SE,126,0.0,0.0,89,0.00,,,0.10,Wunderground v.1.15,2013-02-11 00:26:00,
2013-02-10 16:36:00,27.2,24.4,31.77,SE,126,0.0,0.0,89,0.00,,,0.10,Wunderground v.1.15,2013-02-11 00:36:00,
2013-02-10 16:46:00,27.3,24.5,31.77,SE,127,0.0,0.0,89,0.00,,,0.10,Wunderground v.1.15,2013-02-11 00:46:00,
2013-02-10 16:51:00,27.3,24.5,31.77,SE,127,0.0,0.0,89,0.00,,,0.10,Wunderground v.1.15,2013-02-11 00:51:00,
2013-02-10 16:56:00,27.4,24.6,31.77,SE,126,0.0,0.0,89,0.00,,,0.10,Wunderground v.1.15,2013-02-11 00:56:00,
2013-02-10 17:01:00,27.4,24.6,31.77,SE,126,0.0,3.0,89,0.00,,,0.10,Wunderground v.1.15,2013-02-11 01:01:00,
2013-02-10 17:11:00,27.4,24.6,31.77,SE,127,0.0,0.0,89,0.00,,,0.10,Wunderground v.1.15,2013-02-11 01:11:00,
2013-02-10 17:21:00,27.2,24.4,31.77,SE,127,0.0,0.0,89,0.00,,,0.10,Wunderground v.1.15,2013-02-11 01:21:00,
2013-02-10 17:26:00,27.2,24.4,31.77,SE,127,0.0,0.0,89,0.00,,,0.10,Wunderground v.1.15,2013-02-11 01:26:00,
2013-02-10 17:31:00,27.1,24.3,31.77,SE,127,0.0,0.0,89,0.00,,,0.10,Wunderground v.1.15,2013-02-11 01:31:00,
2013-02-10 17:41:00,27.0,24.2,31.77,SE,127,0.0,0.0,89,0.00,,,0.10,Wunderground v.1.15,2013-02-11 01:41:00,
2013-02-10 17:46:00,27.0,24.5,31.77,SE,127,0.0,0.0,90,0.00,,,0.10,Wunderground v.1.15,2013-02-11 01:46:00,
2013-02-10 17:51:00,26.9,24.4,31.77,SE,126,0.0,0.0,90,0.00,,,0.10,Wunderground v.1.15,2013-02-11 01:51:00,
2013-02-10 17:56:00,26.9,24.4,31.77,SE,126,0.0,0.0,90,0.00,,,0.10,Wunderground v.1.15,2013-02-11 01:56:00,
2013-02-10 18:01:00,26.9,24.4,31.77,SE,127,0.0,0.0,90,0.00,,,0.10,Wunderground v.1.15,2013-02-11 02:01:00,
2013-02-10 18:06:00,26.8,24.0,31.77,SE,127,0.0,0.0,89,0.00,,,0.10,Wunderground v.1.15,2013-02-11 02:06:00,
2013-02-10 18:11:00,26.7,24.2,31.77,SE,126,0.0,0.0,90,0.00,,,0.10,Wunderground v.1.15,2013-02-11 02:11:00,
2013-02-10 18:21:00,26.4,23.9,31.77,SE,127,0.0,0.0,90,0.00,,,0.10,Wunderground v.1.15,2013-02-11 02:21:00,
2013-02-10 18:26:00,26.2,23.7,31.77,SE,126,0.0,0.0,90,0.00,,,0.10,Wunderground v.1.15,2013-02-11 02:26:00,
2013-02-10 18:31:00,26.1,23.6,31.77,SE,126,0.0,0.0,90,0.00,,,0.10,Wunderground v.1.15,2013-02-11 02:31:00,
2013-02-10 18:36:00,26.0,23.5,31.77,SE,127,0.0,0.0,90,0.00,,,0.10,Wunderground v.1.15,2013-02-11 02:36:00,
2013-02-10 18:41:00,25.9,23.4,31.77,SE,126,0.0,0.0,90,0.00,,,0.10,Wunderground v.1.15,2013-02-11 02:41:00,
2013-02-10 18:46:00,25.7,23.2,31.77,SE,126,0.0,0.0,90,0.00,,,0.10,Wunderground v.1.15,2013-02-11 02:46:00,
2013-02-10 18:51:00,25.5,23.0,31.77,SE,126,0.0,0.0,90,0.00,,,0.10,Wunderground v.1.15,2013-02-11 02:51:00,
2013-02-10 18:56:00,25.1,22.6,31.77,SE,127,0.0,0.0,90,0.00,,,0.10,Wunderground v.1.15,2013-02-11 02:56:00,
2013-02-10 19:01:00,24.7,21.9,31.77,SE,126,0.0,0.0,89,0.00,,,0.10,Wunderground v.1.15,2013-02-11 03:01:00,
2013-02-10 19:06:00,24.3,21.8,31.77,SE,127,0.0,0.0,90,0.00,,,0.10,Wunderground v.1.15,2013-02-11 03:06:00,
2013-02-10 19:11:00,24.0,21.2,31.77,SE,127,0.0,0.0,89,0.00,,,0.10,Wunderground v.1.15,2013-02-11 03:11:00,
2013-02-10 19:16:00,23.7,21.2,31.77,SE,127,0.0,0.0,90,0.00,,,0.10,Wunderground v.1.15,2013-02-11 03:16:00,
2013-02-10 19:56:00,21.6,19.1,31.77,SE,127,0.0,0.0,90,0.00,,,0.10,Wunderground v.1.15,2013-02-11 03:56:00,
2013-02-10 20:01:00,21.3,18.8,31.77,SE,127,0.0,0.0,90,0.00,,,0.10,Wunderground v.1.15,2013-02-11 04:01:00,
2013-02-10 20:11:00,20.9,18.4,31.77,SE,127,0.0,1.0,90,0.00,,,0.10,Wunderground v.1.15,2013-02-11 04:11:00,
2013-02-10 20:16:00,20.8,18.3,31.77,SE,127,0.0,1.0,90,0.00,,,0.10,Wunderground v.1.15,2013-02-11 04:16:00,
2013-02-10 20:21:00,20.7,18.2,31.77,SE,127,0.0,0.0,90,0.00,,,0.10,Wunderground v.1.15,2013-02-11 04:21:00,
2013-02-10 20:26:00,20.5,18.0,31.77,SE,126,0.0,2.0,90,0.00,,,0.10,Wunderground v.1.15,2013-02-11 04:26:00,
2013-02-10 20:31:00,20.3,17.8,31.77,SE,126,0.0,0.0,90,0.00,,,0.10,Wunderground v.1.15,2013-02-11 04:31:00,
2013-02-10 20:36:00,20.2,17.7,31.77,SE,127,0.0,0.0,90,0.00,,,0.10,Wunderground v.1.15,2013-02-11 04:36:00,
2013-02-10 20:41:00,20.0,17.5,31.77,SE,127,0.0,1.0,90,0.00,,,0.10,Wunderground v.1.15,2013-02-11 04:41:00,
2013-02-10 20:46:00,19.9,17.4,31.77,SE,127,1.0,1.0,90,0.00,,,0.10,Wunderground v.1.15,2013-02-11 04:46:00,
2013-02-10 20:51:00,19.7,17.2,31.77,SE,127,0.0,0.0,90,0.00,,,0.10,Wunderground v.1.15,2013-02-11 04:51:00,
2013-02-10 20:56:00,19.7,17.5,31.77,SE,127,0.0,0.0,91,0.00,,,0.10,Wunderground v.1.15,2013-02-11 04:56:00,
2013-02-10 21:01:00,19.7,17.5,31.77,SE,127,0.0,2.0,91,0.00,,,0.10,Wunderground v.1.15,2013-02-11 05:01:00,
2013-02-10 21:06:00,19.6,17.4,31.77,SE,127,1.0,2.0,91,0.00,,,0.10,Wunderground v.1.15,2013-02-11 05:06:00,
2013-02-10 21:11:00,19.5,17.3,31.77,SE,127,1.0,1.0,91,0.00,,,0.10,Wunderground v.1.15,2013-02-11 05:11:00,
2013-02-10 21:16:00,19.3,17.1,31.77,SE,127,0.0,1.0,91,0.00,,,0.10,Wunderground v.1.15,2013-02-11 05:16:00,
2013-02-10 21:21:00,19.3,17.1,31.77,SE,127,0.0,0.0,91,0.00,,,0.10,Wunderground v.1.15,2013-02-11 05:21:00,
2013-02-10 21:26:00,19.3,17.1,31.77,SE,126,0.0,0.0,91,0.00,,,0.10,Wunderground v.1.15,2013-02-11 05:26:00,
2013-02-10 21:31:00,19.2,17.0,31.77,SE,126,0.0,0.0,91,0.00,,,0.10,Wunderground v.1.15,2013-02-11 05:31:00,
2013-02-10 21:36:00,19.1,16.9,31.77,SE,126,0.0,0.0,91,0.00,,,0.10,Wunderground v.1.15,2013-02-11 05:36:00,
2013-02-10 21:41:00,19.0,16.8,31.77,SE,126,0.0,0.0,91,0.00,,,0.10,Wunderground v.1.15,2013-02-11 05:41:00,
2013-02-10 21:46:00,18.9,16.7,31.77,SE,126,0.0,0.0,91,0.00,,,0.10,Wunderground v.1.15,2013-02-11 05:46:00,
2013-02-10 21:51:00,19.0,16.8,31.77,SE,127,0.0,0.0,91,0.00,,,0.10,Wunderground v.1.15,2013-02-11 05:51:00,
2013-02-10 21:56:00,18.9,16.7,31.77,SE,127,0.0,1.0,91,0.00,,,0.10,Wunderground v.1.15,2013-02-11 05:56:00,
2013-02-10 22:01:00,18.9,16.7,31.77,SE,126,1.0,1.0,91,0.00,,,0.10,Wunderground v.1.15,2013-02-11 06:01:00,
2013-02-10 22:11:00,18.8,16.6,31.77,SE,126,0.0,0.0,91,0.00,,,0.10,Wunderground v.1.15,2013-02-11 06:11:00,
2013-02-10 22:16:00,18.7,16.5,31.77,SE,126,0.0,0.0,91,0.00,,,0.10,Wunderground v.1.15,2013-02-11 06:16:00,
2013-02-10 22:21:00,18.7,16.5,31.77,SE,126,0.0,0.0,91,0.00,,,0.10,Wunderground v.1.15,2013-02-11 06:21:00,
2013-02-10 22:26:00,18.7,16.8,31.77,SE,126,0.0,0.0,92,0.00,,,0.10,Wunderground v.1.15,2013-02-11 06:26:00,
2013-02-10 22:31:00,18.8,16.9,31.77,SE,127,0.0,0.0,92,0.00,,,0.10,Wunderground v.1.15,2013-02-11 06:31:00,
2013-02-10 22:36:00,18.7,16.8,31.77,SE,127,0.0,0.0,92,0.00,,,0.10,Wunderground v.1.15,2013-02-11 06:36:00,
2013-02-10 22:41:00,18.8,16.9,31.77,SE,127,0.0,0.0,92,0.00,,,0.10,Wunderground v.1.15,2013-02-11 06:41:00,
2013-02-10 22:46:00,18.8,16.9,31.77,SE,127,0.0,0.0,92,0.00,,,0.10,Wunderground v.1.15,2013-02-11 06:46:00,
2013-02-10 22:51:00,18.8,16.9,31.77,SE,126,0.0,0.0,92,0.00,,,0.10,Wunderground v.1.15,2013-02-11 06:51:00,
2013-02-10 22:56:00,18.9,17.0,31.77,SE,127,0.0,0.0,92,0.00,,,0.10,Wunderground v.1.15,2013-02-11 06:56:00,
2013-02-10 23:01:00,18.9,17.0,31.77,SE,126,0.0,2.0,92,0.00,,,0.10,Wunderground v.1.15,2013-02-11 07:01:00,
2013-02-10 23:06:00,18.9,17.0,31.77,SE,126,0.0,2.0,92,0.00,,,0.10,Wunderground v.1.15,2013-02-11 07:06:00,
2013-02-10 23:11:00,18.9,17.0,31.77,SE,126,0.0,0.0,92,0.00,,,0.10,Wunderground v.1.15,2013-02-11 07:11:00,
2013-02-10 23:16:00,18.8,16.9,31.77,SE,126,0.0,0.0,92,0.00,,,0.10,Wunderground v.1.15,2013-02-11 07:16:00,
2013-02-10 23:21:00,18.8,16.9,31.77,SE,126,0.0,0.0,92,0.00,,,0.10,Wunderground v.1.15,2013-02-11 07:21:00,
2013-02-10 23:26:00,18.8,16.9,31.77,SE,127,0.0,0.0,92,0.00,,,0.10,Wunderground v.1.15,2013-02-11 07:26:00,
2013-02-10 23:31:00,18.9,17.0,31.77,SE,127,0.0,0.0,92,0.00,,,0.10,Wunderground v.1.15,2013-02-11 07:31:00,
2013-02-10 23:36:00,18.9,17.0,31.77,SE,126,0.0,0.0,92,0.00,,,0.10,Wunderground v.1.15,2013-02-11 07:36:00,
2013-02-10 23:41:00,19.0,17.1,31.77,SE,126,0.0,0.0,92,0.00,,,0.10,Wunderground v.1.15,2013-02-11 07:41:00,
2013-02-10 23:46:00,19.2,17.5,31.77,SE,126,0.0,0.0,93,0.00,,,0.10,Wunderground v.1.15,2013-02-11 07:46:00,
2013-02-10 23:51:00,19.3,17.4,31.77,SE,126,0.0,0.0,92,0.00,,,0.10,Wunderground v.1.15,2013-02-11 07:51:00,
2013-02-10 23:56:00,19.3,17.4,31.77,SE,126,0.0,0.0,92,0.00,,,0.10,Wunderground v.1.15,2013-02-11 07:56:00,